Time;durP1;ratioP1;P1;durP2;ratioP2;P2;SDS_P1;SDS_P2;PMS_P1;PMS_P2;Temp;Humidity;BMP_temperature;BMP_pressure;BME280_temperature;BME280_humidity;BME280_pressure;Samples;Min_cycle;Max_cycle;Signal;HPM_P1;HPM_P2
2022/04/09 00:00:26;;;;;;;10.77;2.40;;;;;;;5.07;nan;100448.34;5054952;28;20029;-64
2022/04/09 00:02:51;;;;;;;16.70;2.53;;;;;;;5.00;nan;100449.31;5054162;28;20029;-64
2022/04/09 00:05:17;;;;;;;12.23;2.03;;;;;;;4.82;nan;100458.28;5055348;28;20044;-64
2022/04/09 00:07:43;;;;;;;10.88;2.80;;;;;;;4.41;nan;100400.66;5053898;28;20036;-63
2022/04/09 00:10:10;;;;;;;9.10;2.45;;;;;;;4.47;nan;100435.31;5053664;28;20119;-64
2022/04/09 00:12:37;;;;;;;11.27;2.58;;;;;;;3.89;nan;100356.25;5054920;28;20086;-62
2022/04/09 00:15:02;;;;;;;8.82;2.10;;;;;;;4.32;nan;100448.56;5053862;28;20040;-62
2022/04/09 00:17:28;;;;;;;15.50;3.15;;;;;;;4.22;nan;100433.09;5053694;28;20098;-64
2022/04/09 00:19:53;;;;;;;9.07;2.70;;;;;;;4.27;nan;100454.72;5053684;28;20040;-62
2022/04/09 00:22:19;;;;;;;12.35;3.13;;;;;;;3.88;nan;100378.81;5054718;28;20444;-64
2022/04/09 00:24:45;;;;;;;27.63;3.67;;;;;;;4.00;nan;100393.41;5054806;28;20032;-63
2022/04/09 00:27:10;;;;;;;15.02;3.45;;;;;;;4.33;nan;100449.44;5054758;28;20112;-62
2022/04/09 00:29:35;;;;;;;14.00;3.17;;;;;;;4.34;nan;100451.16;5054578;28;20055;-64
2022/04/09 00:32:01;;;;;;;26.65;3.50;;;;;;;4.14;nan;100401.06;5054798;28;20476;-61
2022/04/09 00:34:26;;;;;;;16.80;3.30;;;;;;;4.17;nan;100386.28;5054433;28;20522;-66
2022/04/09 00:36:52;;;;;;;11.95;2.95;;;;;;;4.34;nan;100402.53;5054768;28;20155;-62
2022/04/09 00:39:18;;;;;;;13.73;2.92;;;;;;;4.72;nan;100461.06;5053385;28;20466;-64
2022/04/09 00:41:47;;;;;;;16.73;3.33;;;;;;;4.69;nan;100474.13;5054622;28;20060;-65
2022/04/09 00:44:21;;;;;;;15.07;4.30;;;;;;;4.78;nan;100479.22;5054404;28;20040;-64
2022/04/09 00:46:46;;;;;;;15.63;4.07;;;;;;;4.76;nan;100476.63;5054168;28;20039;-64
2022/04/09 00:49:12;;;;;;;15.02;3.08;;;;;;;4.40;nan;100417.22;5054361;28;20412;-66
2022/04/09 00:51:41;;;;;;;14.70;3.10;;;;;;;4.51;nan;100444.84;5054277;28;20036;-63
2022/04/09 00:54:08;;;;;;;15.23;3.03;;;;;;;4.76;nan;100481.81;5054223;28;20481;-63
2022/04/09 00:56:34;;;;;;;15.30;3.08;;;;;;;4.75;nan;100493.16;5052651;28;20146;-64
2022/04/09 00:59:05;;;;;;;9.43;3.30;;;;;;;4.65;nan;100485.47;5053008;28;20033;-63
2022/04/09 01:01:33;;;;;;;11.77;2.72;;;;;;;4.60;nan;100495.13;5054103;28;20122;-61
2022/04/09 01:03:58;;;;;;;17.02;3.40;;;;;;;4.59;nan;100501.19;5054073;28;20033;-62
2022/04/09 01:06:24;;;;;;;11.02;2.88;;;;;;;4.19;nan;100451.34;5053857;28;20033;-61
2022/04/09 01:08:49;;;;;;;16.70;3.80;;;;;;;4.53;nan;100520.38;5053919;28;20037;-64
2022/04/09 01:11:15;;;;;;;18.33;3.72;;;;;;;4.18;nan;100458.31;5054102;28;20029;-65
2022/04/09 01:13:41;;;;;;;19.95;3.90;;;;;;;4.13;nan;100456.63;5052899;28;20033;-64
2022/04/09 01:16:06;;;;;;;16.70;4.28;;;;;;;4.65;nan;100522.84;5053813;28;20505;-62
2022/04/09 01:18:33;;;;;;;16.05;3.25;;;;;;;4.76;nan;100560.06;5053698;28;20040;-65
2022/04/09 01:21:00;;;;;;;12.60;3.53;;;;;;;4.82;nan;100561.72;5052454;28;20033;-64
2022/04/09 01:23:26;;;;;;;13.75;2.70;;;;;;;4.20;nan;100506.06;5053649;28;20112;-63
2022/04/09 01:25:52;;;;;;;9.93;2.15;;;;;;;3.97;nan;100503.69;5035688;28;20119;-61
2022/04/09 01:28:17;;;;;;;13.35;2.60;;;;;;;4.18;nan;100549.47;5052479;28;20140;-64
2022/04/09 01:30:44;;;;;;;13.50;3.30;;;;;;;3.82;nan;100500.41;5052459;28;20072;-64
2022/04/09 01:33:17;;;;;;;16.52;2.65;;;;;;;4.02;nan;100539.25;5053534;28;20099;-61
2022/04/09 01:35:43;;;;;;;11.88;3.35;;;;;;;4.02;nan;100547.06;5052235;28;20041;-61
2022/04/09 01:38:08;;;;;;;14.10;2.95;;;;;;;3.94;nan;100548.00;5052090;28;20125;-62
2022/04/09 01:40:34;;;;;;;13.63;3.03;;;;;;;4.01;nan;100571.38;5053152;28;20126;-61
2022/04/09 01:42:59;;;;;;;16.10;2.55;;;;;;;4.08;nan;100565.22;5053305;28;20044;-60
2022/04/09 01:45:24;;;;;;;7.68;2.38;;;;;;;4.12;nan;100587.75;5053178;28;20497;-63
2022/04/09 01:47:50;;;;;;;6.68;1.98;;;;;;;3.82;nan;100526.44;5053227;28;20082;-63
2022/04/09 01:50:15;;;;;;;7.97;1.90;;;;;;;4.13;nan;100579.06;5053139;28;20025;-64
2022/04/09 01:52:41;;;;;;;9.32;2.15;;;;;;;4.04;nan;100559.19;5051547;28;20120;-62
2022/04/09 01:55:07;;;;;;;8.85;2.30;;;;;;;4.09;nan;100587.78;5051685;28;20055;-64
2022/04/09 01:57:33;;;;;;;9.45;1.70;;;;;;;4.07;nan;100606.03;5052932;28;20041;-63
2022/04/09 01:59:59;;;;;;;11.10;2.00;;;;;;;3.71;nan;100539.53;5052965;28;20041;-63
2022/04/09 02:02:24;;;;;;;5.18;1.90;;;;;;;3.89;nan;100581.03;5052892;28;20485;-62
2022/04/09 02:04:49;;;;;;;8.70;2.08;;;;;;;3.48;nan;100518.06;5052920;28;20470;-61
2022/04/09 02:07:15;;;;;;;11.88;2.10;;;;;;;3.79;nan;100584.63;5052692;28;20041;-61
2022/04/09 02:09:40;;;;;;;11.30;3.05;;;;;;;3.75;nan;100587.25;5051975;28;20032;-61
2022/04/09 02:12:06;;;;;;;6.47;2.08;;;;;;;3.33;nan;100524.25;5052969;28;20059;-61
2022/04/09 02:14:31;;;;;;;14.55;3.17;;;;;;;3.69;nan;100593.38;5034982;28;20087;-62
2022/04/09 02:16:58;;;;;;;10.82;2.60;;;;;;;3.29;nan;100524.31;5052970;28;20041;-62
2022/04/09 02:19:23;;;;;;;12.95;2.58;;;;;;;3.66;nan;100582.97;5052431;28;20033;-62
2022/04/09 02:21:48;;;;;;;23.30;3.60;;;;;;;3.73;nan;100604.63;5034548;28;20090;-63
2022/04/09 02:24:14;;;;;;;11.27;3.08;;;;;;;3.38;nan;100556.34;5052696;28;20078;-61
2022/04/09 02:26:39;;;;;;;19.88;3.22;;;;;;;3.32;nan;100539.91;5052303;28;20040;-63
2022/04/09 02:29:05;;;;;;;19.75;3.03;;;;;;;3.29;nan;100545.13;5052419;28;20067;-61
2022/04/09 02:31:30;;;;;;;14.98;2.95;;;;;;;3.62;nan;100593.44;5052387;28;20040;-60
2022/04/09 02:33:55;;;;;;;17.02;4.57;;;;;;;3.73;nan;100615.91;5052416;28;20090;-61
2022/04/09 02:36:22;;;;;;;14.25;3.90;;;;;;;3.54;nan;100554.44;5052254;28;20037;-63
2022/04/09 02:38:48;;;;;;;12.20;2.95;;;;;;;3.90;nan;100620.97;5052261;28;20426;-59
2022/04/09 02:41:13;;;;;;;18.45;3.20;;;;;;;3.84;nan;100598.44;5050950;28;20056;-62
2022/04/09 02:43:43;;;;;;;13.75;2.58;;;;;;;3.93;nan;100600.09;5052394;28;20036;-62
2022/04/09 02:46:08;;;;;;;16.58;3.35;;;;;;;3.68;nan;100560.38;5052175;28;20407;-64
2022/04/09 02:48:33;;;;;;;12.93;3.28;;;;;;;4.03;nan;100621.72;5052282;28;20107;-63
2022/04/09 02:50:59;;;;;;;11.93;3.00;;;;;;;3.62;nan;100557.00;5050916;28;20128;-63
2022/04/09 02:53:24;;;;;;;11.90;3.10;;;;;;;4.11;nan;100648.56;5052531;28;20041;-62
2022/04/09 02:55:49;;;;;;;9.65;2.80;;;;;;;4.06;nan;100638.16;5050928;28;20029;-64
2022/04/09 02:58:15;;;;;;;11.65;2.10;;;;;;;4.08;nan;100648.56;5052203;28;20029;-60
2022/04/09 03:00:40;;;;;;;8.00;2.63;;;;;;;3.73;nan;100576.84;5052118;28;20033;-60
2022/04/09 03:03:06;;;;;;;15.05;2.50;;;;;;;3.87;nan;100598.41;5052236;28;20028;-63
2022/04/09 03:05:31;;;;;;;11.57;2.53;;;;;;;4.23;nan;100649.28;5050753;28;20040;-61
2022/04/09 03:07:57;;;;;;;12.70;3.67;;;;;;;3.91;nan;100601.88;5051998;28;20108;-62
2022/04/09 03:10:23;;;;;;;18.92;3.53;;;;;;;4.29;nan;100648.38;5052172;28;20090;-61
2022/04/09 03:12:48;;;;;;;14.88;3.30;;;;;;;3.97;nan;100597.44;5052068;28;20389;-63
2022/04/09 03:15:14;;;;;;;16.38;3.00;;;;;;;4.23;nan;100661.47;5052173;28;20115;-65
2022/04/09 03:17:40;;;;;;;14.90;2.78;;;;;;;4.11;nan;100640.75;5050786;28;20033;-62
2022/04/09 03:20:06;;;;;;;15.45;2.75;;;;;;;4.34;nan;100681.34;5051796;28;20087;-60
2022/04/09 03:22:32;;;;;;;11.98;2.38;;;;;;;4.35;nan;100684.81;5055967;28;20036;-63
2022/04/09 03:24:58;;;;;;;13.82;3.58;;;;;;;4.13;nan;100642.44;5054803;28;20480;-62
2022/04/09 03:27:24;;;;;;;8.00;2.53;;;;;;;4.57;nan;100701.94;5054901;28;20067;-64
2022/04/09 03:29:49;;;;;;;19.58;3.85;;;;;;;4.08;nan;100619.94;5055894;28;20362;-61
2022/04/09 03:32:15;;;;;;;15.32;3.28;;;;;;;4.24;nan;100634.50;5055799;28;20031;-62
2022/04/09 03:34:40;;;;;;;10.93;2.88;;;;;;;4.50;nan;100695.06;5055798;28;20029;-61
2022/04/09 03:37:05;;;;;;;10.38;2.58;;;;;;;4.18;nan;100638.03;5055582;28;20063;-63
2022/04/09 03:39:31;;;;;;;15.25;2.80;;;;;;;4.52;nan;100706.34;5055409;28;20466;-61
2022/04/09 03:41:56;;;;;;;12.02;2.47;;;;;;;4.16;nan;100655.44;5054103;28;20540;-62
2022/04/09 03:44:22;;;;;;;14.32;3.15;;;;;;;4.50;nan;100732.41;5055956;28;20071;-61
2022/04/09 03:46:47;;;;;;;8.27;2.33;;;;;;;4.39;nan;100704.72;5055346;28;20072;-62
2022/04/09 03:49:15;;;;;;;10.98;2.53;;;;;;;4.47;nan;100716.81;5055471;28;20037;-62
2022/04/09 03:51:40;;;;;;;10.75;2.92;;;;;;;4.32;nan;100680.47;5055221;28;20033;-60
2022/04/09 03:54:08;;;;;;;16.50;3.28;;;;;;;4.65;nan;100722.72;5055593;28;20029;-64
2022/04/09 03:56:33;;;;;;;13.80;3.10;;;;;;;4.29;nan;100651.00;5055331;28;20039;-61
2022/04/09 03:58:58;;;;;;;15.95;3.08;;;;;;;4.28;nan;100670.97;5055309;28;20025;-63
2022/04/09 04:01:24;;;;;;;14.10;2.78;;;;;;;4.69;nan;100717.47;5055067;28;20041;-63
2022/04/09 04:03:51;;;;;;;18.33;2.85;;;;;;;4.52;nan;100701.97;5054986;28;20470;-61
2022/04/09 04:06:17;;;;;;;17.20;4.63;;;;;;;4.65;nan;100725.31;5053764;28;20041;-60
2022/04/09 04:08:42;;;;;;;16.27;3.22;;;;;;;4.64;nan;100734.88;5054523;28;20520;-63
2022/04/09 04:11:07;;;;;;;10.55;2.75;;;;;;;4.58;nan;100718.47;5055248;28;20061;-61
2022/04/09 04:13:35;;;;;;;17.50;3.90;;;;;;;4.58;nan;100727.16;5054938;28;20033;-62
2022/04/09 04:16:03;;;;;;;21.58;3.38;;;;;;;4.35;nan;100685.63;5053658;28;20136;-62
2022/04/09 04:18:28;;;;;;;13.48;3.20;;;;;;;4.30;nan;100678.75;5054867;28;20390;-62
2022/04/09 04:20:54;;;;;;;15.50;3.28;;;;;;;4.71;nan;100748.72;5054715;28;20037;-63
2022/04/09 04:23:20;;;;;;;13.43;3.33;;;;;;;4.67;nan;100745.28;5054831;28;20057;-62
2022/04/09 04:25:45;;;;;;;13.68;2.65;;;;;;;4.66;nan;100754.00;5054678;28;20045;-63
2022/04/09 04:28:10;;;;;;;16.70;3.95;;;;;;;4.60;nan;100745.38;5054812;28;20025;-62
2022/04/09 04:30:36;;;;;;;17.25;3.42;;;;;;;4.33;nan;100697.84;5053709;28;20025;-65
2022/04/09 04:33:01;;;;;;;14.88;3.03;;;;;;;4.74;nan;100761.72;5053987;28;20082;-62
2022/04/09 04:35:26;;;;;;;11.70;3.17;;;;;;;4.75;nan;100772.16;5054404;28;20091;-64
2022/04/09 04:37:54;;;;;;;13.70;3.88;;;;;;;4.70;nan;100766.09;5054786;28;20366;-65
2022/04/09 04:40:19;;;;;;;26.88;3.40;;;;;;;4.73;nan;100771.28;5054486;28;20043;-65
2022/04/09 04:42:45;;;;;;;16.73;3.35;;;;;;;4.69;nan;100766.13;5054585;28;20040;-60
2022/04/09 04:45:11;;;;;;;9.63;2.42;;;;;;;4.62;nan;100778.34;5054799;28;20051;-62
2022/04/09 04:47:48;;;;;;;11.15;3.13;;;;;;;4.59;nan;100781.00;5069845;28;20392;-65
2022/04/09 04:50:14;;;;;;;16.17;3.03;;;;;;;4.57;nan;100779.28;5053343;28;20033;-61
2022/04/09 04:52:40;;;;;;;14.77;2.55;;;;;;;4.57;nan;100780.16;5054306;28;20112;-63
2022/04/09 04:55:06;;;;;;;14.73;3.45;;;;;;;4.61;nan;100788.81;5054092;28;20469;-64
2022/04/09 04:57:43;;;;;;;10.70;2.40;;;;;;;4.66;nan;100785.28;5054171;28;20402;-62
2022/04/09 05:00:08;;;;;;;9.75;2.65;;;;;;;4.76;nan;100783.47;5052873;28;20033;-64
2022/04/09 05:02:34;;;;;;;22.35;3.20;;;;;;;4.92;nan;100798.94;5052562;28;20044;-62
2022/04/09 05:05:01;;;;;;;17.55;4.22;;;;;;;5.13;nan;100808.28;5054170;28;20055;-66
2022/04/09 05:07:38;;;;;;;9.80;2.05;;;;;;;5.23;nan;100809.91;5052831;28;20056;-62
2022/04/09 05:10:06;;;;;;;8.27;1.92;;;;;;;5.21;nan;100829.06;5053885;28;20064;-64
2022/04/09 05:12:33;;;;;;;7.97;1.63;;;;;;;5.19;nan;100830.84;5053810;28;20029;-64
2022/04/09 05:14:59;;;;;;;4.95;1.42;;;;;;;5.05;nan;100812.69;5053889;28;20045;-63
2022/04/09 05:17:24;;;;;;;5.40;1.60;;;;;;;5.03;nan;100825.78;5053846;28;20109;-62
2022/04/09 05:19:50;;;;;;;4.43;1.60;;;;;;;4.99;nan;100841.47;5052456;28;20493;-62
2022/04/09 05:22:15;;;;;;;10.63;2.08;;;;;;;5.05;nan;100857.91;5053893;28;20370;-63
2022/04/09 05:24:41;;;;;;;7.00;1.80;;;;;;;5.05;nan;100855.31;5053632;28;20091;-59
2022/04/09 05:27:06;;;;;;;12.25;1.98;;;;;;;5.10;nan;100871.81;5053610;28;20570;-64
2022/04/09 05:29:31;;;;;;;6.80;2.00;;;;;;;5.16;nan;100870.88;5053453;28;20504;-62
2022/04/09 05:31:57;;;;;;;6.80;2.10;;;;;;;5.24;nan;100861.22;5053397;28;20048;-60
2022/04/09 05:34:22;;;;;;;8.07;1.95;;;;;;;5.32;nan;100884.63;5053508;28;20116;-63
2022/04/09 05:36:47;;;;;;;7.10;1.98;;;;;;;4.83;nan;100796.41;5051958;28;20045;-60
2022/04/09 05:39:15;;;;;;;10.65;1.98;;;;;;;4.65;nan;100820.03;5053488;28;20439;-61
2022/04/09 05:41:41;;;;;;;8.70;2.20;;;;;;;4.74;nan;100874.72;5051477;28;20048;-62
2022/04/09 05:44:06;;;;;;;12.48;2.92;;;;;;;4.58;nan;100873.13;5051926;28;20069;-64
2022/04/09 05:46:32;;;;;;;6.50;1.52;;;;;;;4.45;nan;100867.13;5052971;28;20029;-62
2022/04/09 05:48:57;;;;;;;6.22;2.25;;;;;;;4.20;nan;100862.97;5053140;28;20032;-62
2022/04/09 05:51:24;;;;;;;8.00;2.30;;;;;;;4.04;nan;100869.13;5035084;28;20029;-63
2022/04/09 05:53:49;;;;;;;8.85;2.17;;;;;;;3.96;nan;100876.13;5053221;28;20108;-63
2022/04/09 05:56:14;;;;;;;11.70;2.47;;;;;;;3.45;nan;100806.91;5051761;28;20112;-62
2022/04/09 05:58:42;;;;;;;16.17;3.17;;;;;;;3.90;nan;100879.63;5051703;28;20040;-62
2022/04/09 06:01:07;;;;;;;11.07;2.92;;;;;;;3.57;nan;100830.28;5051530;28;20123;-61
2022/04/09 06:03:33;;;;;;;11.35;2.67;;;;;;;3.52;nan;100821.66;5051640;28;20116;-63
2022/04/09 06:05:58;;;;;;;13.82;3.08;;;;;;;3.85;nan;100875.31;5052953;28;20033;-64
2022/04/09 06:08:23;;;;;;;13.40;2.97;;;;;;;3.50;nan;100813.00;5051510;28;20094;-63
2022/04/09 06:10:49;;;;;;;14.00;2.97;;;;;;;3.92;nan;100877.88;5052746;28;20481;-62
2022/04/09 06:13:15;;;;;;;13.18;3.22;;;;;;;3.70;nan;100821.56;5052473;28;20067;-61
2022/04/09 06:15:41;;;;;;;10.15;3.65;;;;;;;3.89;nan;100828.41;5052604;28;20132;-64
2022/04/09 06:18:07;;;;;;;12.95;3.70;;;;;;;4.46;nan;100904.50;5052828;28;20108;-60
2022/04/09 06:20:33;;;;;;;10.50;3.50;;;;;;;4.36;nan;100867.19;5052634;28;20033;-63
2022/04/09 06:22:59;;;;;;;16.83;3.33;;;;;;;4.69;nan;100886.06;5052729;28;20084;-62
2022/04/09 06:25:25;;;;;;;19.67;3.35;;;;;;;4.54;nan;100853.16;5051374;28;20044;-63
2022/04/09 06:27:51;;;;;;;10.77;3.47;;;;;;;4.86;nan;100899.84;5051511;28;20025;-64
2022/04/09 06:30:16;;;;;;;11.65;3.25;;;;;;;4.98;nan;100908.44;5050508;28;20078;-61
2022/04/09 06:32:42;;;;;;;15.55;3.45;;;;;;;4.66;nan;100845.25;5052337;28;20041;-61
2022/04/09 06:35:09;;;;;;;12.55;4.10;;;;;;;5.05;nan;100907.47;5052039;28;20155;-62
2022/04/09 06:37:38;;;;;;;18.10;3.90;;;;;;;5.09;nan;100916.16;5052546;28;20083;-63
2022/04/09 06:40:09;;;;;;;14.18;3.70;;;;;;;5.13;nan;100930.03;5052521;28;20037;-63
2022/04/09 06:42:39;;;;;;;15.25;4.13;;;;;;;5.09;nan;100931.81;5051364;28;20146;-62
2022/04/09 06:45:08;;;;;;;17.15;3.45;;;;;;;5.10;nan;100944.84;5034771;28;20429;-63
2022/04/09 06:47:42;;;;;;;16.70;3.60;;;;;;;5.10;nan;100934.41;5047602;28;20505;-62
2022/04/09 06:50:11;;;;;;;17.33;3.78;;;;;;;5.07;nan;100930.97;5032304;28;20114;-61
2022/04/09 06:52:36;;;;;;;19.35;3.70;;;;;;;5.16;nan;100950.91;5032298;28;20059;-62
2022/04/09 06:55:03;;;;;;;23.55;3.97;;;;;;;5.15;nan;100960.47;5032436;28;20029;-61
2022/04/09 06:57:29;;;;;;;15.68;2.97;;;;;;;4.81;nan;100891.19;5032167;28;20034;-62
2022/04/09 07:00:01;;;;;;;14.70;4.00;;;;;;;5.20;nan;100976.06;5032436;28;20049;-62
2022/04/09 07:02:27;;;;;;;14.25;3.85;;;;;;;5.10;nan;100985.72;5031986;28;20482;-63
2022/04/09 07:04:53;;;;;;;7.28;2.20;;;;;;;4.89;nan;100971.09;5032284;28;20034;-63
2022/04/09 07:07:23;;;;;;;6.80;2.03;;;;;;;4.87;nan;100979.81;5032200;28;20044;-62
2022/04/09 07:09:48;;;;;;;11.88;2.75;;;;;;;4.78;nan;100962.50;5032082;28;20466;-63
2022/04/09 07:12:14;;;;;;;10.52;2.22;;;;;;;4.48;nan;100913.16;5046122;28;20116;-63
2022/04/09 07:14:39;;;;;;;13.35;2.80;;;;;;;5.00;nan;100981.44;5051474;28;20033;-62
2022/04/09 07:17:05;;;;;;;8.88;2.22;;;;;;;5.01;nan;100977.97;5052090;28;20037;-62
2022/04/09 07:19:30;;;;;;;11.20;3.40;;;;;;;5.01;nan;100985.81;5051735;28;20474;-62
2022/04/09 07:21:56;;;;;;;7.95;2.35;;;;;;;4.15;nan;100802.19;5051194;28;20082;-62
2022/04/09 07:24:21;;;;;;;8.18;2.42;;;;;;;5.43;nan;100916.72;5050551;28;20033;-63
2022/04/09 07:26:46;;;;;;;13.45;3.45;;;;;;;5.77;nan;100782.25;5051844;28;20126;-62
2022/04/09 07:29:12;;;;;;;9.40;3.08;;;;;;;7.77;nan;100996.16;5050470;28;20067;-62
2022/04/09 07:31:37;;;;;;;11.98;2.42;;;;;;;7.76;nan;101015.41;5051255;28;20044;-63
2022/04/09 07:34:03;;;;;;;8.90;2.70;;;;;;;7.73;nan;101028.56;5050990;28;20639;-62
2022/04/09 07:36:29;;;;;;;13.23;2.30;;;;;;;7.31;nan;101012.69;5046410;28;20036;-63
2022/04/09 07:38:55;;;;;;;5.50;2.10;;;;;;;6.89;nan;100976.69;5051155;28;20094;-63
2022/04/09 07:41:21;;;;;;;5.72;1.75;;;;;;;7.19;nan;101040.81;5049507;28;20512;-62
2022/04/09 07:43:46;;;;;;;9.07;2.53;;;;;;;7.36;nan;101041.41;5050543;28;20037;-63
2022/04/09 07:46:12;;;;;;;7.45;1.60;;;;;;;7.93;nan;101060.53;5033530;28;20037;-63
2022/04/09 07:48:37;;;;;;;7.18;1.80;;;;;;;8.43;nan;101043.84;5051408;28;20044;-63
2022/04/09 07:51:03;;;;;;;3.50;1.33;;;;;;;9.05;nan;101061.72;5051940;28;20529;-63
2022/04/09 07:53:28;;;;;;;3.67;1.00;;;;;;;9.23;nan;101020.19;5051601;28;20033;-63
2022/04/09 07:55:54;;;;;;;6.57;1.40;;;;;;;10.14;nan;101076.56;5050217;28;20104;-62
2022/04/09 07:58:19;;;;;;;4.05;1.40;;;;;;;10.39;nan;101095.22;5049906;28;20033;-62
2022/04/09 08:00:45;;;;;;;6.85;1.35;;;;;;;9.78;nan;101112.53;5051335;28;20154;-63
2022/04/09 08:03:11;;;;;;;7.90;1.80;;;;;;;8.59;nan;101047.00;5051538;28;20029;-62
2022/04/09 08:05:37;;;;;;;6.82;1.58;;;;;;;7.85;nan;101112.22;5051340;28;20079;-62
2022/04/09 08:08:03;;;;;;;5.05;1.10;;;;;;;6.92;nan;101141.50;5052827;28;20076;-62
2022/04/09 08:10:29;;;;;;;6.13;1.13;;;;;;;5.38;nan;101054.22;5053590;28;20047;-61
2022/04/09 08:12:56;;;;;;;6.18;1.30;;;;;;;5.35;nan;101148.22;5053975;28;20032;-61
2022/04/09 08:15:22;;;;;;;6.40;1.48;;;;;;;4.60;nan;101072.09;5054835;28;20124;-61
2022/04/09 08:17:48;;;;;;;11.00;1.98;;;;;;;4.58;nan;101132.94;5054946;28;20037;-61
2022/04/09 08:20:14;;;;;;;5.50;1.65;;;;;;;4.00;nan;101069.72;5053530;28;20033;-61
2022/04/09 08:22:40;;;;;;;6.25;1.65;;;;;;;4.11;nan;101131.34;5054673;28;20037;-61
2022/04/09 08:25:06;;;;;;;6.30;1.63;;;;;;;3.84;nan;101105.31;5054838;28;20068;-62
2022/04/09 08:27:31;;;;;;;4.63;1.20;;;;;;;3.83;nan;101100.97;5055041;28;20072;-61
2022/04/09 08:29:56;;;;;;;6.47;1.27;;;;;;;3.97;nan;101107.00;5053482;28;20755;-61
2022/04/09 08:32:25;;;;;;;8.05;1.42;;;;;;;3.84;nan;101054.09;5053542;28;20041;-61
2022/04/09 08:34:50;;;;;;;6.22;1.38;;;;;;;3.81;nan;101025.47;5054577;28;20039;-61
2022/04/09 08:37:16;;;;;;;6.63;1.40;;;;;;;4.38;nan;101088.69;5054526;28;20037;-62
2022/04/09 08:39:41;;;;;;;6.53;1.30;;;;;;;4.77;nan;101095.47;5053349;28;20076;-62
2022/04/09 08:42:07;;;;;;;6.15;1.60;;;;;;;5.40;nan;101097.69;5052984;28;20425;-62
2022/04/09 08:44:34;;;;;;;10.05;1.80;;;;;;;6.66;nan;101088.66;5051909;28;20064;-62
2022/04/09 08:47:00;;;;;;;5.90;1.65;;;;;;;8.25;nan;101094.00;5053913;28;20382;-62
2022/04/09 08:49:28;;;;;;;6.75;1.77;;;;;;;9.77;nan;101068.75;5053102;28;20055;-63
2022/04/09 08:51:54;;;;;;;8.40;2.33;;;;;;;11.16;nan;101100.81;5037148;28;20040;-63
2022/04/09 08:54:19;;;;;;;12.63;3.15;;;;;;;11.80;nan;101078.56;5052840;28;20040;-61
2022/04/09 08:56:45;;;;;;;9.75;2.60;;;;;;;12.53;nan;101155.19;5054186;28;20560;-64
2022/04/09 08:59:11;;;;;;;11.07;2.72;;;;;;;12.26;nan;101146.47;5036102;28;20029;-63
2022/04/09 09:01:36;;;;;;;10.85;2.22;;;;;;;;;;5054327;28;20346;-62
2022/04/09 09:04:02;;;;;;;8.07;2.88;;;;;;;11.17;nan;101187.75;5053709;28;20044;-63
2022/04/09 09:06:31;;;;;;;7.70;2.65;;;;;;;10.90;nan;101154.28;5054252;28;20033;-63
2022/04/09 09:09:01;;;;;;;9.70;3.15;;;;;;;10.29;nan;101178.78;5054071;28;20090;-63
2022/04/09 09:11:28;;;;;;;14.80;3.60;;;;;;;9.21;nan;101117.41;5054011;28;20033;-62
2022/04/09 09:13:57;;;;;;;14.23;3.28;;;;;;;8.96;nan;101156.44;5053606;28;20474;-62
2022/04/09 09:16:31;;;;;;;10.57;2.88;;;;;;;8.61;nan;101158.91;5053638;28;20048;-63
2022/04/09 09:19:07;;;;;;;8.57;3.13;;;;;;;8.25;nan;101170.94;5053958;28;20025;-62
2022/04/09 09:21:33;;;;;;;8.88;2.80;;;;;;;7.96;nan;101172.31;5053633;28;20025;-62
2022/04/09 09:24:07;;;;;;;12.85;3.30;;;;;;;7.77;nan;101169.97;5053714;28;20064;-62
2022/04/09 09:26:35;;;;;;;11.68;2.90;;;;;;;7.46;nan;101105.84;5053664;28;20056;-63
2022/04/09 09:29:00;;;;;;;9.50;2.55;;;;;;;7.92;nan;101174.09;5053492;28;20037;-61
2022/04/09 09:31:42;;;;;;;9.60;2.40;;;;;;;8.21;nan;101171.88;5053373;28;20040;-63
2022/04/09 09:34:11;;;;;;;11.90;3.03;;;;;;;8.85;nan;101112.94;5052458;28;20214;-64
2022/04/09 09:36:40;;;;;;;9.63;2.47;;;;;;;9.51;nan;101177.16;5051148;28;20017;-63
2022/04/09 09:39:06;;;;;;;8.70;2.90;;;;;;;10.12;nan;101133.59;5053533;28;20437;-65
2022/04/09 09:41:31;;;;;;;9.70;2.15;;;;;;;11.26;nan;101194.50;5051777;28;20124;-64
2022/04/09 09:44:04;;;;;;;8.73;2.92;;;;;;;11.85;nan;101219.06;5053306;28;20072;-64
2022/04/09 09:46:30;;;;;;;6.07;2.10;;;;;;;11.83;nan;101199.78;5053241;28;20064;-64
2022/04/09 09:48:55;;;;;;;7.32;2.50;;;;;;;11.76;nan;101162.19;5051949;28;20080;-63
2022/04/09 09:51:24;;;;;;;9.82;3.03;;;;;;;12.37;nan;101215.63;5053097;28;20064;-66
2022/04/09 09:54:03;;;;;;;8.20;2.22;;;;;;;12.68;nan;101226.84;5052838;28;20123;-64
2022/04/09 09:56:35;;;;;;;7.32;2.75;;;;;;;12.88;nan;101240.22;5052669;28;20029;-64
2022/04/09 09:59:02;;;;;;;5.28;2.13;;;;;;;12.09;nan;101252.59;5051257;28;20121;-66
2022/04/09 10:01:28;;;;;;;9.77;2.10;;;;;;;11.88;nan;101240.06;5034624;28;20094;-65
2022/04/09 10:03:53;;;;;;;7.55;2.28;;;;;;;11.46;nan;101222.91;5051381;28;20029;-64
2022/04/09 10:06:20;;;;;;;8.63;2.05;;;;;;;10.93;nan;101230.56;5051761;28;20037;-64
2022/04/09 10:08:47;;;;;;;9.18;2.30;;;;;;;10.30;nan;101224.38;5034868;28;20025;-64
2022/04/09 10:11:12;;;;;;;11.48;3.35;;;;;;;9.91;nan;101157.81;5053204;28;20116;-64
2022/04/09 10:13:42;;;;;;;7.93;2.25;;;;;;;10.62;nan;101230.53;5052899;28;20029;-66
2022/04/09 10:16:08;;;;;;;6.70;2.33;;;;;;;11.18;nan;101249.19;5052631;28;20041;-66
2022/04/09 10:18:34;;;;;;;4.15;1.90;;;;;;;12.05;nan;101234.28;5051560;28;20028;-65
2022/04/09 10:21:01;;;;;;;5.78;2.13;;;;;;;12.07;nan;101250.91;5051132;28;20103;-65
2022/04/09 10:23:32;;;;;;;9.27;2.45;;;;;;;12.43;nan;101247.09;5067925;28;20083;-65
2022/04/09 10:25:59;;;;;;;5.13;2.00;;;;;;;13.57;nan;101238.56;5035437;28;20374;-65
2022/04/09 10:28:33;;;;;;;5.93;1.88;;;;;;;13.89;nan;101271.72;5051691;28;20123;-65
2022/04/09 10:30:59;;;;;;;7.40;1.92;;;;;;;13.84;nan;101263.06;5051937;28;20025;-67
2022/04/09 10:33:29;;;;;;;5.82;1.95;;;;;;;13.71;nan;101275.06;5052412;28;20044;-65
2022/04/09 10:36:02;;;;;;;5.85;2.10;;;;;;;12.84;nan;101280.84;5052247;28;20029;-67
2022/04/09 10:38:27;;;;;;;4.70;2.00;;;;;;;12.49;nan;101241.59;5052284;28;20029;-66
2022/04/09 10:40:55;;;;;;;6.70;1.35;;;;;;;12.56;nan;101297.69;5050795;28;20223;-68
2022/04/09 10:43:26;;;;;;;4.22;1.85;;;;;;;11.21;nan;101243.81;5052343;28;20060;-65
2022/04/09 10:46:00;;;;;;;5.40;1.90;;;;;;;10.21;nan;101307.03;5051256;28;20045;-64
2022/04/09 10:48:36;;;;;;;9.00;2.13;;;;;;;9.05;nan;101307.69;5037315;28;20037;-66
2022/04/09 10:51:08;;;;;;;12.32;2.05;;;;;;;8.10;nan;101293.56;5047495;28;20040;-65
2022/04/09 10:53:39;;;;;;;;;;;;;;;7.77;nan;101295.75;5048532;28;20072;-65
2022/04/09 10:56:26;;;;;;;8.35;2.10;;;;;;;7.47;nan;101296.19;5052807;28;19920;-66
2022/04/09 10:58:59;;;;;;;5.40;1.70;;;;;;;7.38;nan;101289.28;5051684;28;20071;-66
2022/04/09 11:01:45;;;;;;;9.40;1.67;;;;;;;7.38;nan;101286.66;5050731;28;20608;-67
2022/04/09 11:04:34;;;;;;;5.82;2.05;;;;;;;7.59;nan;101289.91;5052220;28;20124;-64
2022/04/09 11:07:14;;;;;;;9.88;2.42;;;;;;;8.03;nan;101282.28;5051976;28;20036;-66
2022/04/09 11:09:45;;;;;;;9.95;1.63;;;;;;;9.02;nan;101290.22;5051992;28;20466;-66
2022/04/09 11:12:11;;;;;;;8.10;1.80;;;;;;;9.73;nan;101297.56;5052094;28;20079;-66
2022/04/09 11:14:47;;;;;;;9.10;1.60;;;;;;;11.18;nan;101236.00;5050693;28;20029;-65
2022/04/09 11:17:26;;;;;;;6.80;1.65;;;;;;;12.75;nan;101310.25;5050463;28;20048;-66
2022/04/09 11:19:53;;;;;;;3.75;1.10;;;;;;;13.88;nan;101320.25;5051903;28;20470;-66
2022/04/09 11:22:18;;;;;;;6.75;1.20;;;;;;;14.87;nan;101322.44;5051346;28;20478;-65
2022/04/09 11:24:44;;;;;;;3.20;1.08;;;;;;;14.26;nan;101311.69;5050662;28;20079;-68
2022/04/09 11:27:13;;;;;;;2.92;1.05;;;;;;;13.62;nan;101275.41;5050568;28;20033;-66
2022/04/09 11:29:40;;;;;;;1.98;1.15;;;;;;;13.89;nan;101319.34;5050561;28;20473;-65
2022/04/09 11:32:15;;;;;;;3.22;1.00;;;;;;;14.56;nan;101306.97;5050521;28;20029;-64
2022/04/09 11:35:00;;;;;;;2.33;0.70;;;;;;;14.75;nan;101337.06;5051403;28;20036;-67
2022/04/09 11:37:29;;;;;;;4.22;1.17;;;;;;;15.51;nan;101328.47;5051644;28;20060;-65
2022/04/09 11:39:55;;;;;;;2.13;0.95;;;;;;;;;;5051756;28;20049;-66
2022/04/09 11:42:21;;;;;;;1.10;0.70;;;;;;;14.86;nan;101337.47;5053091;28;20056;-65
2022/04/09 11:44:46;;;;;;;3.53;0.90;;;;;;;15.20;nan;101340.44;5055945;28;20413;-68